Naugatuck, West Virginia
Current Conditions -  °F | °C
As of 7:15 AM on Saturday 25 Oct 2014 (Local Time) from KSJS Reporting Station
Clear Clear  
Wind Chill: 42°   Ceiling: Unl
Heat Index: 42°   Visibility: 10mi
Dew Point: 40°   Wind: 3mph
Humidity: 94%   Direction: 190°S
Pressure: 30.07"   Gusts: NA
Location:  37.79°N, 82.35°W
Report Text: KSJS 251115Z AUTO 19003KT 10SM CLR 06/05 A3007 RMK AO2 T00560047
Loading
Personal Weather Stations






























Interactive Weather Map
Tropical Storm Tracking
New forecast layout! Learn more

10-Day Weather Forecast

Advertisements
Track Severe Weather on mobile